Time;durP1;ratioP1;P1;durP2;ratioP2;P2;SDS_P1;SDS_P2;PMS_P1;PMS_P2;Temp;Humidity;BMP_temperature;BMP_pressure;BME280_temperature;BME280_humidity;BME280_pressure;Samples;Min_cycle;Max_cycle;Signal;HPM_P1;HPM_P2
2023/01/22 00:01:25;;;;;;;12.00;7.10;;;;;;;0.05;100.00;102055.50;7399824;19;20501;-67
2023/01/22 00:03:54;;;;;;;12.52;6.75;;;;;;;0.03;100.00;102052.84;7398035;19;20026;-67
2023/01/22 00:06:23;;;;;;;11.38;6.78;;;;;;;0.04;100.00;102057.19;7399529;19;20018;-67
2023/01/22 00:08:51;;;;;;;10.43;5.95;;;;;;;0.04;100.00;102051.13;7400179;19;20018;-68
2023/01/22 00:11:27;;;;;;;12.60;7.50;;;;;;;0.04;100.00;102056.31;7399174;19;20023;-68
2023/01/22 00:13:58;;;;;;;9.48;6.63;;;;;;;0.03;100.00;102057.16;7398611;19;20031;-68
2023/01/22 00:16:27;;;;;;;11.93;6.88;;;;;;;0.03;100.00;102058.00;7399984;19;20012;-67
2023/01/22 00:18:55;;;;;;;13.07;7.03;;;;;;;0.04;100.00;102059.78;7400529;19;20019;-68
2023/01/22 00:21:23;;;;;;;11.27;6.50;;;;;;;0.05;100.00;102052.91;7397766;19;20031;-67
2023/01/22 00:23:52;;;;;;;11.50;7.03;;;;;;;0.03;100.00;102055.44;7398038;19;20018;-68
2023/01/22 00:26:22;;;;;;;8.90;6.43;;;;;;;0.03;100.00;102057.16;7400160;19;20010;-68
2023/01/22 00:28:50;;;;;;;8.80;5.93;;;;;;;0.03;100.00;102058.00;7399505;19;20083;-68
2023/01/22 00:31:22;;;;;;;10.93;6.50;;;;;;;0.03;100.00;102059.72;7399479;19;20007;-68
2023/01/22 00:33:50;;;;;;;10.63;6.13;;;;;;;0.02;100.00;102055.38;7398598;19;20048;-68
2023/01/22 00:36:21;;;;;;;10.73;6.75;;;;;;;0.02;100.00;102056.25;7399303;19;20035;-68
2023/01/22 00:38:50;;;;;;;11.60;6.85;;;;;;;0.03;100.00;102049.41;7399394;19;20010;-68
2023/01/22 00:41:20;;;;;;;11.95;6.47;;;;;;;0.04;100.00;102051.13;7397212;19;20010;-68
2023/01/22 00:43:49;;;;;;;8.75;6.82;;;;;;;0.05;100.00;102056.41;7395492;19;20022;-68
2023/01/22 00:46:20;;;;;;;10.45;7.00;;;;;;;0.05;100.00;102052.91;7399131;19;20022;-68
2023/01/22 00:48:50;;;;;;;9.75;6.20;;;;;;;0.00;100.00;102042.41;7398757;19;20019;-68
2023/01/22 00:51:19;;;;;;;11.30;6.68;;;;;;;0.06;100.00;102052.97;7398310;19;20484;-68
2023/01/22 00:53:48;;;;;;;12.13;6.45;;;;;;;0.05;100.00;102058.97;7397545;19;20022;-68
2023/01/22 00:56:16;;;;;;;12.27;7.05;;;;;;;0.07;100.00;102062.47;7398651;19;20022;-68
2023/01/22 00:58:45;;;;;;;10.23;6.72;;;;;;;0.08;100.00;102059.09;7398694;19;20027;-68
2023/01/22 01:01:15;;;;;;;10.20;6.60;;;;;;;0.09;100.00;102065.13;7398501;19;20019;-69
2023/01/22 01:03:46;;;;;;;9.93;7.10;;;;;;;0.10;100.00;102072.94;7396866;19;20014;-68
2023/01/22 01:06:18;;;;;;;9.00;6.20;;;;;;;0.09;100.00;102068.59;7398766;19;20028;-68
2023/01/22 01:08:47;;;;;;;10.43;6.72;;;;;;;0.09;100.00;102070.28;7397873;19;20731;-68
2023/01/22 01:11:20;;;;;;;9.40;6.25;;;;;;;0.11;100.00;102082.44;7396670;19;20014;-68
2023/01/22 01:13:49;;;;;;;12.45;6.72;;;;;;;0.12;100.00;102080.75;7397473;19;20041;-68
2023/01/22 01:16:20;;;;;;;10.57;6.45;;;;;;;0.11;100.00;102084.16;7397486;19;20380;-68
2023/01/22 01:18:51;;;;;;;10.55;6.18;;;;;;;0.11;100.00;102081.56;7396289;19;20036;-68
2023/01/22 01:21:20;;;;;;;10.35;7.45;;;;;;;0.11;100.00;102089.31;7395921;19;20031;-68
2023/01/22 01:23:49;;;;;;;13.77;7.90;;;;;;;0.11;100.00;102085.00;7395451;19;20007;-68
2023/01/22 01:26:19;;;;;;;12.27;6.95;;;;;;;0.12;100.00;102075.59;7397199;19;20027;-68
2023/01/22 01:28:51;;;;;;;10.57;7.03;;;;;;;0.07;100.00;102077.97;7397066;19;20505;-68
2023/01/22 01:31:22;;;;;;;8.85;6.47;;;;;;;0.10;100.00;102084.97;7397020;19;20011;-68
2023/01/22 01:33:53;;;;;;;9.25;6.07;;;;;;;0.11;100.00;102090.16;7395833;19;20378;-68
2023/01/22 01:36:23;;;;;;;10.75;6.53;;;;;;;0.12;100.00;102091.06;7396784;19;20018;-68
2023/01/22 01:38:53;;;;;;;13.18;7.20;;;;;;;0.12;100.00;102096.25;7396631;19;20014;-68
2023/01/22 01:41:24;;;;;;;9.65;6.85;;;;;;;0.14;100.00;102095.50;7397447;19;20014;-68
2023/01/22 01:44:09;;;;;;;10.13;6.72;;;;;;;0.15;100.00;102094.69;7395682;19;20363;-68
2023/01/22 01:46:42;;;;;;;11.27;7.03;;;;;;;0.17;100.00;102099.03;7396416;19;20018;-68
2023/01/22 01:49:19;;;;;;;11.35;6.72;;;;;;;0.17;100.00;102093.88;7394917;19;20014;-68
2023/01/22 01:51:49;;;;;;;9.10;6.40;;;;;;;0.14;100.00;102086.88;7396319;19;20014;-68
2023/01/22 01:54:19;;;;;;;7.55;6.20;;;;;;;0.15;100.00;102088.63;7392199;19;20083;-68
2023/01/22 01:56:52;;;;;;;11.23;6.25;;;;;;;0.16;100.00;102087.81;7396165;19;20469;-68
2023/01/22 01:59:23;;;;;;;8.85;6.97;;;;;;;0.15;100.00;102089.50;7396877;19;20032;-68
2023/01/22 02:01:55;;;;;;;12.43;7.78;;;;;;;0.15;100.00;102094.69;7396122;19;20015;-68
2023/01/22 02:04:27;;;;;;;10.48;6.95;;;;;;;0.14;100.00;102090.31;7394918;19;20022;-68
2023/01/22 02:06:55;;;;;;;8.90;6.80;;;;;;;0.14;100.00;102085.16;7395933;19;20011;-68
2023/01/22 02:09:24;;;;;;;9.75;6.45;;;;;;;0.13;100.00;102082.53;7396145;19;20014;-68
2023/01/22 02:11:54;;;;;;;10.23;7.00;;;;;;;0.15;100.00;102092.09;7394862;19;20403;-69
2023/01/22 02:14:27;;;;;;;10.73;6.85;;;;;;;0.15;100.00;102092.09;7392940;19;20083;-70
2023/01/22 02:17:03;;;;;;;9.85;6.90;;;;;;;0.15;100.00;102091.19;7395434;19;20028;-70
2023/01/22 02:19:34;;;;;;;10.18;7.25;;;;;;;0.13;100.00;102087.69;7396938;19;20481;-71
2023/01/22 02:22:05;;;;;;;13.05;7.75;;;;;;;0.13;100.00;102088.56;7398745;19;20039;-70
2023/01/22 02:24:34;;;;;;;7.65;6.78;;;;;;;0.13;100.00;102093.72;7396078;19;20023;-70
2023/01/22 02:27:03;;;;;;;9.82;6.97;;;;;;;0.14;100.00;102094.63;7396984;19;20035;-70
2023/01/22 02:29:31;;;;;;;9.20;6.72;;;;;;;0.13;100.00;102090.25;7397175;19;20019;-70
2023/01/22 02:32:00;;;;;;;9.80;6.75;;;;;;;0.13;100.00;102096.28;7397333;19;20035;-70
2023/01/22 02:34:28;;;;;;;11.98;7.25;;;;;;;0.13;100.00;102098.00;7395285;19;20023;-70
2023/01/22 02:36:57;;;;;;;12.43;7.90;;;;;;;0.13;100.00;102096.28;7394777;19;20078;-70
2023/01/22 02:39:29;;;;;;;10.73;8.05;;;;;;;-0.06;100.00;102060.22;7402591;19;20031;-69
2023/01/22 02:41:58;;;;;;;9.65;6.60;;;;;;;0.13;100.00;102090.25;7406635;19;20419;-69
2023/01/22 02:44:26;;;;;;;10.80;7.75;;;;;;;0.13;100.00;102092.84;7404526;19;20015;-70
2023/01/22 02:46:54;;;;;;;10.93;7.80;;;;;;;0.13;100.00;102091.13;7404446;19;20031;-69
2023/01/22 02:49:23;;;;;;;14.55;7.30;;;;;;;0.12;100.00;102102.28;7403853;19;20028;-69
2023/01/22 02:51:52;;;;;;;9.73;7.07;;;;;;;0.12;100.00;102102.28;7402672;19;20039;-69
2023/01/22 02:54:20;;;;;;;10.45;7.00;;;;;;;0.12;100.00;102099.69;7402012;19;20023;-70
2023/01/22 02:56:51;;;;;;;10.38;7.43;;;;;;;0.13;100.00;102098.88;7402192;19;20031;-69
2023/01/22 02:59:20;;;;;;;9.30;7.10;;;;;;;0.12;100.00;102097.09;7401267;19;20011;-69
2023/01/22 03:01:49;;;;;;;11.68;7.63;;;;;;;0.12;100.00;102096.25;7399425;19;20416;-69
2023/01/22 03:04:18;;;;;;;11.43;7.90;;;;;;;0.13;100.00;102100.59;7399099;19;20077;-69
2023/01/22 03:06:48;;;;;;;12.18;8.30;;;;;;;0.10;100.00;102101.34;7403794;19;20007;-70
2023/01/22 03:09:18;;;;;;;11.63;8.00;;;;;;;0.11;100.00;102103.06;7406982;19;20023;-70
2023/01/22 03:11:48;;;;;;;13.73;8.48;;;;;;;0.11;100.00;102100.50;7406546;19;20107;-71
2023/01/22 03:22:23;;;;;;;13.27;7.93;;;;;;;0.08;100.00;102105.53;7402918;19;20010;-70
2023/01/22 03:24:52;;;;;;;10.93;8.60;;;;;;;0.11;100.00;102109.94;7399695;19;20086;-70
2023/01/22 03:27:22;;;;;;;13.98;9.32;;;;;;;0.06;100.00;102106.28;7402444;19;20017;-70
2023/01/22 03:29:53;;;;;;;14.15;8.80;;;;;;;0.12;100.00;102117.75;7399357;19;20014;-71
2023/01/22 03:32:22;;;;;;;11.35;8.45;;;;;;;0.13;100.00;102113.50;7400491;19;20015;-70
2023/01/22 03:34:52;;;;;;;13.43;8.85;;;;;;;0.13;100.00;102118.66;7399504;19;20022;-71
2023/01/22 03:37:21;;;;;;;13.85;10.40;;;;;;;0.13;100.00;102105.75;7399655;19;20011;-71
2023/01/22 03:39:49;;;;;;;13.43;9.27;;;;;;;0.14;100.00;102110.09;7400688;19;20018;-70
2023/01/22 03:42:18;;;;;;;12.10;9.23;;;;;;;0.13;100.00;102114.38;7403739;19;20014;-70
2023/01/22 03:44:46;;;;;;;12.95;8.90;;;;;;;0.14;100.00;102112.69;7401210;19;20031;-70
2023/01/22 03:47:19;;;;;;;14.52;8.95;;;;;;;0.14;100.00;102110.97;7400918;19;20015;-70
2023/01/22 03:49:47;;;;;;;12.65;9.27;;;;;;;0.14;100.00;102120.44;7399597;19;20078;-71
2023/01/22 03:52:16;;;;;;;12.40;9.00;;;;;;;0.10;100.00;102109.09;7398376;19;20436;-70
2023/01/22 03:54:44;;;;;;;11.63;8.65;;;;;;;0.09;100.00;102112.47;7398806;19;20018;-70
2023/01/22 03:57:13;;;;;;;13.13;9.13;;;;;;;0.13;100.00;102122.09;7401456;19;20094;-71
2023/01/22 03:59:41;;;;;;;12.70;8.85;;;;;;;0.11;100.00;102123.72;7399102;19;20022;-70
2023/01/22 04:02:10;;;;;;;11.90;8.80;;;;;;;0.15;100.00;102127.31;7399061;19;20036;-70
2023/01/22 04:04:43;;;;;;;16.63;10.27;;;;;;;0.14;100.00;102126.47;7397670;19;20078;-71
2023/01/22 04:07:11;;;;;;;16.70;10.23;;;;;;;0.14;100.00;102126.47;7400828;19;20378;-70
2023/01/22 04:09:40;;;;;;;13.98;9.23;;;;;;;0.15;100.00;102137.66;7398601;19;20070;-70
2023/01/22 04:12:09;;;;;;;15.77;9.07;;;;;;;0.14;100.00;102129.03;7400720;19;20015;-71
2023/01/22 04:14:37;;;;;;;12.50;9.20;;;;;;;0.15;100.00;102132.50;7397529;19;20411;-71
2023/01/22 04:17:06;;;;;;;11.65;9.35;;;;;;;0.14;100.00;102134.19;7396414;19;20411;-70
2023/01/22 04:19:34;;;;;;;14.48;9.50;;;;;;;0.14;100.00;102133.34;7398044;19;20423;-71
2023/01/22 04:22:05;;;;;;;13.18;9.30;;;;;;;0.13;100.00;102131.56;7398067;19;20411;-70
2023/01/22 04:24:35;;;;;;;15.48;10.57;;;;;;;0.14;100.00;102134.19;7397929;19;20035;-70
2023/01/22 04:27:03;;;;;;;13.00;8.88;;;;;;;0.13;100.00;102141.88;7397409;19;20025;-71
2023/01/22 04:29:32;;;;;;;13.90;9.82;;;;;;;0.13;100.00;102141.88;7397697;19;20019;-70
2023/01/22 04:32:00;;;;;;;14.20;8.82;;;;;;;0.12;100.00;102146.16;7397747;19;20022;-70
2023/01/22 04:34:29;;;;;;;14.65;8.95;;;;;;;0.12;100.00;102145.28;7398598;19;20014;-70
2023/01/22 04:36:57;;;;;;;12.15;9.40;;;;;;;0.11;100.00;102140.91;7405146;19;20015;-70
2023/01/22 04:39:30;;;;;;;15.48;10.55;;;;;;;0.11;100.00;102149.53;7407879;19;20011;-70
2023/01/22 04:41:58;;;;;;;18.00;10.20;;;;;;;0.10;100.00;102149.47;7402354;19;20025;-70
2023/01/22 04:44:27;;;;;;;15.07;10.85;;;;;;;0.10;100.00;102152.06;7397742;19;20082;-70
2023/01/22 04:46:55;;;;;;;14.40;9.95;;;;;;;0.08;100.00;102162.31;7397332;19;20039;-69
2023/01/22 04:49:23;;;;;;;14.48;10.52;;;;;;;0.08;100.00;102157.16;7397336;19;20022;-69
2023/01/22 04:51:52;;;;;;;13.15;10.07;;;;;;;0.07;100.00;102165.72;7396813;19;20014;-70
2023/01/22 04:54:21;;;;;;;13.15;9.90;;;;;;;0.08;100.00;102164.03;7396677;19;20014;-70
2023/01/22 04:56:52;;;;;;;14.27;9.90;;;;;;;0.07;100.00;102165.72;7396892;19;20028;-71
2023/01/22 04:59:20;;;;;;;11.80;9.13;;;;;;;0.07;100.00;102164.84;7396876;19;20014;-70
2023/01/22 05:01:49;;;;;;;14.27;9.93;;;;;;;0.07;100.00;102172.59;7399233;19;20031;-70
2023/01/22 05:04:20;;;;;;;14.70;10.68;;;;;;;0.06;100.00;102176.84;7397046;19;20022;-70
2023/01/22 05:06:49;;;;;;;17.58;11.25;;;;;;;0.06;100.00;102179.41;7397409;19;20025;-70
2023/01/22 05:09:17;;;;;;;16.90;9.82;;;;;;;0.07;100.00;102172.59;7396393;19;20032;-70
2023/01/22 05:11:46;;;;;;;15.05;10.35;;;;;;;0.06;100.00;102178.56;7399116;19;20026;-70
2023/01/22 05:14:17;;;;;;;16.67;11.00;;;;;;;0.07;100.00;102183.78;7396765;19;20027;-69
2023/01/22 05:16:46;;;;;;;16.27;11.18;;;;;;;0.06;100.00;102184.59;7397099;19;20035;-70
2023/01/22 05:19:14;;;;;;;15.45;10.32;;;;;;;0.06;100.00;102194.03;7396405;19;20010;-69
2023/01/22 05:21:42;;;;;;;16.10;10.60;;;;;;;0.03;100.00;102188.75;7396819;19;20035;-69
2023/01/22 05:24:11;;;;;;;15.88;10.48;;;;;;;0.04;100.00;102201.72;7396722;19;20031;-69
2023/01/22 05:26:40;;;;;;;66.32;35.10;;;;;;;0.02;100.00;102190.44;7396955;19;20110;-69
2023/01/22 05:29:08;;;;;;;15.85;10.73;;;;;;;0.01;100.00;102188.66;7396145;19;20418;-69
2023/01/22 05:31:39;;;;;;;15.70;10.27;;;;;;;0.03;100.00;102199.06;7396977;19;20022;-71
2023/01/22 05:34:08;;;;;;;15.20;10.45;;;;;;;0.00;100.00;102207.56;7396045;19;20467;-70
2023/01/22 05:36:36;;;;;;;17.15;11.18;;;;;;;-0.02;100.00;102204.03;7398050;19;20346;-70
2023/01/22 05:39:05;;;;;;;16.98;10.82;;;;;;;-0.02;100.00;102209.19;7396354;19;20459;-69
2023/01/22 05:41:33;;;;;;;16.35;10.70;;;;;;;-0.03;100.00;102205.69;7397751;19;20018;-70
2023/01/22 05:44:03;;;;;;;14.90;10.95;;;;;;;-0.03;100.00;102209.97;7395983;19;20018;-70
2023/01/22 05:46:31;;;;;;;15.32;10.82;;;;;;;-0.04;100.00;102215.97;7395616;19;20077;-70
2023/01/22 05:49:02;;;;;;;17.05;10.55;;;;;;;-0.05;100.00;102221.91;7394969;19;20511;-70
2023/01/22 05:51:31;;;;;;;18.25;12.27;;;;;;;-0.06;100.00;102220.19;7396383;19;20018;-70
2023/01/22 05:53:59;;;;;;;19.02;12.77;;;;;;;-0.06;100.00;102223.63;7395594;19;20415;-70
2023/01/22 05:56:34;;;;;;;16.52;11.05;;;;;;;-0.06;100.00;102226.22;7397376;19;20542;-70
2023/01/22 05:59:02;;;;;;;16.33;11.18;;;;;;;-0.07;100.00;102223.56;7395939;19;20018;-70
2023/01/22 06:01:31;;;;;;;17.83;11.77;;;;;;;-0.07;100.00;102226.16;7395848;19;20022;-70
2023/01/22 06:04:02;;;;;;;15.48;10.90;;;;;;;-0.07;100.00;102229.59;7395756;19;20486;-70
2023/01/22 06:06:30;;;;;;;16.83;11.98;;;;;;;-0.05;100.00;102232.25;7395826;19;20424;-70
2023/01/22 06:09:05;;;;;;;16.10;11.32;;;;;;;-0.04;100.00;102234.00;7395290;19;20031;-70
2023/01/22 06:11:33;;;;;;;17.05;10.73;;;;;;;-0.05;100.00;102235.72;7394695;19;20508;-70
2023/01/22 06:14:02;;;;;;;17.00;11.48;;;;;;;-0.04;100.00;102234.91;7395016;19;20024;-70
2023/01/22 06:16:31;;;;;;;16.58;11.38;;;;;;;-0.04;100.00;102234.91;7397187;19;20031;-70
2023/01/22 06:19:02;;;;;;;18.15;12.60;;;;;;;-0.04;100.00;102236.59;7395293;19;20343;-70
2023/01/22 06:21:30;;;;;;;16.63;12.25;;;;;;;-0.06;100.00;102233.09;7396390;19;20022;-70
2023/01/22 06:23:59;;;;;;;15.70;11.35;;;;;;;-0.09;100.00;102239.00;7394855;19;20032;-67
2023/01/22 06:26:27;;;;;;;16.15;11.07;;;;;;;-0.07;100.00;102239.06;7395093;19;20022;-67
2023/01/22 06:28:56;;;;;;;18.38;10.98;;;;;;;-0.08;100.00;102238.16;7395874;19;20022;-67
2023/01/22 06:31:25;;;;;;;14.38;11.60;;;;;;;-0.07;100.00;102239.91;7394565;19;20078;-67
2023/01/22 06:33:55;;;;;;;17.90;11.88;;;;;;;-0.08;100.00;102240.72;7394113;19;20018;-67
2023/01/22 06:36:26;;;;;;;14.82;11.73;;;;;;;-0.12;100.00;102231.09;7394792;19;20014;-68
2023/01/22 06:38:54;;;;;;;17.75;11.93;;;;;;;-0.10;100.00;102242.38;7398054;19;20018;-69
2023/01/22 06:41:23;;;;;;;18.08;11.85;;;;;;;-0.09;100.00;102243.25;7398731;19;20039;-70
2023/01/22 06:43:51;;;;;;;17.00;11.80;;;;;;;-0.13;100.00;102242.22;7403245;19;20018;-67
2023/01/22 06:46:20;;;;;;;17.58;11.25;;;;;;;-0.08;100.00;102255.34;7400427;19;20574;-67
2023/01/22 06:48:48;;;;;;;18.65;12.85;;;;;;;-0.08;100.00;102250.19;7403472;19;20055;-67
2023/01/22 06:51:17;;;;;;;16.88;12.05;;;;;;;-0.07;100.00;102254.53;7400056;19;20422;-67
2023/01/22 06:53:48;;;;;;;17.73;11.88;;;;;;;-0.08;100.00;102263.06;7400227;19;20011;-68
2023/01/22 06:56:16;;;;;;;17.92;12.13;;;;;;;-0.08;100.00;102263.06;7400122;19;20457;-68
2023/01/22 06:58:45;;;;;;;16.65;11.65;;;;;;;-0.06;100.00;102266.63;7401051;19;20501;-68
2023/01/22 07:01:13;;;;;;;19.00;13.50;;;;;;;-0.05;100.00;102268.38;7403636;19;20018;-68
2023/01/22 07:03:42;;;;;;;18.33;13.00;;;;;;;-0.04;100.00;102267.56;7400692;19;20018;-68
2023/01/22 07:06:11;;;;;;;18.02;12.27;;;;;;;-0.08;100.00;102263.06;7400014;19;20553;-68
2023/01/22 07:08:40;;;;;;;17.92;13.10;;;;;;;-0.02;100.00;102273.69;7400506;19;20015;-67
2023/01/22 07:11:12;;;;;;;17.70;11.82;;;;;;;-0.01;100.00;102280.63;7400817;19;20035;-68
2023/01/22 07:13:40;;;;;;;16.85;12.65;;;;;;;0.02;100.00;102285.03;7400233;19;20035;-67
2023/01/22 07:16:11;;;;;;;21.55;12.98;;;;;;;0.01;100.00;102286.72;7401282;19;20018;-67
2023/01/22 07:18:40;;;;;;;17.48;13.02;;;;;;;0.03;100.00;102297.13;7400570;19;20017;-69
2023/01/22 07:21:08;;;;;;;20.42;14.07;;;;;;;0.04;100.00;102294.63;7400715;19;20014;-68
2023/01/22 07:23:37;;;;;;;18.63;13.20;;;;;;;0.06;100.00;102294.69;7400678;19;20011;-69
2023/01/22 07:26:05;;;;;;;20.13;13.18;;;;;;;0.06;100.00;102303.28;7400254;19;20035;-69
2023/01/22 07:28:36;;;;;;;17.08;12.63;;;;;;;0.07;100.00;102307.66;7400219;19;20036;-69
2023/01/22 07:31:05;;;;;;;20.40;13.23;;;;;;;0.08;100.00;102308.56;7400383;19;20415;-71
2023/01/22 07:33:33;;;;;;;19.77;13.68;;;;;;;0.09;100.00;102302.56;7400491;19;20541;-70
2023/01/22 07:36:02;;;;;;;19.90;13.00;;;;;;;0.10;100.00;102312.97;7401448;19;20019;-71
2023/01/22 07:38:31;;;;;;;21.48;13.63;;;;;;;0.05;100.00;102310.97;7401151;19;20046;-71
2023/01/22 07:41:02;;;;;;;18.00;13.35;;;;;;;0.11;100.00;102319.88;7400987;19;20014;-72
2023/01/22 07:43:31;;;;;;;20.02;14.43;;;;;;;0.10;100.00;102315.56;7399639;19;20035;-70
2023/01/22 07:46:05;;;;;;;18.70;13.05;;;;;;;-0.05;100.00;102289.00;7401550;19;20022;-70
2023/01/22 07:48:34;;;;;;;;;;;;;;;0.11;100.00;102319.00;7403926;19;20014;-70
2023/01/22 07:51:04;;;;;;;17.88;12.45;;;;;;;0.11;100.00;102316.44;7402421;19;20331;-71
2023/01/22 07:53:33;;;;;;;18.30;12.82;;;;;;;0.07;100.00;102311.94;7400323;19;20023;-71
2023/01/22 07:56:04;;;;;;;18.65;12.40;;;;;;;0.12;100.00;102329.41;7404305;19;20018;-70
2023/01/22 07:58:33;;;;;;;18.58;13.20;;;;;;;0.12;100.00;102329.41;7402392;19;20018;-71
2023/01/22 08:01:07;;;;;;;18.83;13.63;;;;;;;0.13;100.00;102335.47;7402263;19;20502;-71
2023/01/22 08:03:36;;;;;;;19.67;13.70;;;;;;;0.15;100.00;102339.88;7404061;19;20023;-71
2023/01/22 08:06:10;;;;;;;20.85;12.57;;;;;;;0.15;100.00;102339.88;7415199;19;20007;-72
2023/01/22 08:08:39;;;;;;;21.98;14.93;;;;;;;0.17;100.00;102349.41;7432199;19;20046;-72
2023/01/22 08:11:07;;;;;;;22.95;13.88;;;;;;;0.18;100.00;102340.81;7431723;19;20017;-71
2023/01/22 08:13:36;;;;;;;19.80;14.35;;;;;;;0.18;100.00;102344.31;7430420;19;20018;-71
2023/01/22 08:16:08;;;;;;;21.48;13.73;;;;;;;0.19;100.00;102345.16;7432121;19;20010;-71
2023/01/22 08:18:36;;;;;;;20.73;14.45;;;;;;;0.20;100.00;102347.81;7405262;19;20014;-72
2023/01/22 08:21:06;;;;;;;19.80;13.73;;;;;;;0.08;100.00;102326.63;7398777;19;20018;-71
2023/01/22 08:23:34;;;;;;;20.65;13.40;;;;;;;0.21;100.00;102351.31;7398504;19;20422;-70
2023/01/22 08:26:03;;;;;;;24.42;14.50;;;;;;;0.21;100.00;102344.44;7398165;19;20436;-70
2023/01/22 08:28:32;;;;;;;19.23;13.00;;;;;;;0.26;100.00;102352.41;7398870;19;20074;-70
2023/01/22 08:31:02;;;;;;;22.77;13.98;;;;;;;0.26;100.00;102357.56;7398810;19;20006;-69
2023/01/22 08:33:35;;;;;;;20.88;13.60;;;;;;;0.26;100.00;102354.97;7399657;19;20497;-71
2023/01/22 08:36:03;;;;;;;21.88;14.23;;;;;;;0.28;100.00;102350.78;7398327;19;20010;-69
2023/01/22 08:38:32;;;;;;;19.90;13.82;;;;;;;0.27;100.00;102355.03;7400706;19;20383;-70
2023/01/22 08:41:00;;;;;;;22.73;13.88;;;;;;;0.30;100.00;102362.03;7398037;19;20490;-71
2023/01/22 08:43:29;;;;;;;22.13;14.50;;;;;;;0.27;100.00;102355.03;7399287;19;20019;-71
2023/01/22 08:45:57;;;;;;;21.80;14.45;;;;;;;0.32;100.00;102373.34;7398044;19;20032;-71
2023/01/22 08:48:26;;;;;;;19.77;14.00;;;;;;;0.32;100.00;102373.34;7404559;19;20015;-71
2023/01/22 08:50:57;;;;;;;20.33;13.88;;;;;;;0.35;100.00;102381.22;7407995;19;20011;-70
2023/01/22 08:53:25;;;;;;;21.50;14.23;;;;;;;0.35;100.00;102386.38;7404833;19;20014;-70
2023/01/22 08:55:54;;;;;;;20.25;14.10;;;;;;;0.35;100.00;102386.38;7398944;19;20245;-70
2023/01/22 08:58:24;;;;;;;21.38;13.95;;;;;;;0.33;100.00;102395.78;7398443;19;20015;-71
2023/01/22 09:00:53;;;;;;;22.35;14.55;;;;;;;0.34;100.00;102389.78;7398552;19;20023;-70
2023/01/22 09:03:22;;;;;;;22.23;14.70;;;;;;;0.38;100.00;102399.44;7397118;19;20015;-71
2023/01/22 09:05:50;;;;;;;21.33;14.73;;;;;;;0.38;100.00;102399.44;7400407;19;20029;-67
2023/01/22 09:08:21;;;;;;;21.08;14.70;;;;;;;0.39;100.00;102401.22;7398049;19;20014;-69
2023/01/22 09:10:50;;;;;;;21.40;14.85;;;;;;;0.40;100.00;102404.69;7399391;19;20035;-69
2023/01/22 09:13:18;;;;;;;20.83;14.32;;;;;;;0.43;100.00;102408.28;7398276;19;20011;-70
2023/01/22 09:15:57;;;;;;;21.17;15.15;;;;;;;0.43;100.00;102410.88;7398011;19;20011;-69
2023/01/22 09:18:26;;;;;;;23.15;15.20;;;;;;;0.32;100.00;102397.44;7397212;19;20529;-68
2023/01/22 09:20:54;;;;;;;24.15;14.93;;;;;;;0.44;100.00;102407.50;7397591;19;20086;-68
2023/01/22 09:23:25;;;;;;;24.05;16.42;;;;;;;0.45;100.00;102406.66;7397651;19;20018;-69
2023/01/22 09:25:54;;;;;;;25.63;16.85;;;;;;;0.45;100.00;102408.34;7402927;19;20094;-68
2023/01/22 09:28:22;;;;;;;25.17;15.85;;;;;;;0.50;100.00;102412.03;7402881;19;20026;-68
2023/01/22 09:30:51;;;;;;;25.05;16.55;;;;;;;0.51;100.00;102408.66;7403177;19;20027;-69
2023/01/22 09:33:19;;;;;;;25.83;16.05;;;;;;;0.57;100.00;102424.44;7401985;19;20037;-68
2023/01/22 09:35:47;;;;;;;23.77;16.25;;;;;;;0.58;100.00;102417.56;7401745;19;20505;-67
2023/01/22 09:38:17;;;;;;;21.00;14.90;;;;;;;0.60;100.00;102418.53;7403457;19;20022;-66
2023/01/22 09:40:53;;;;;;;22.42;15.13;;;;;;;0.66;100.00;102423.97;7397416;19;20019;-69
2023/01/22 09:43:30;;;;;;;27.02;15.82;;;;;;;0.68;100.00;102421.47;7396594;19;20018;-69
2023/01/22 09:46:04;;;;;;;23.35;15.13;;;;;;;0.69;100.00;102416.34;7398671;19;20019;-68
2023/01/22 09:48:38;;;;;;;22.60;15.88;;;;;;;0.70;100.00;102428.47;7396266;19;20423;-67
2023/01/22 09:51:07;;;;;;;;;;;;;;;0.71;100.00;102424.16;7397404;19;20423;-68
2023/01/22 09:53:36;;;;;;;22.45;15.05;;;;;;;0.69;100.00;102421.50;7396518;19;19923;-67
2023/01/22 09:56:09;;;;;;;23.38;16.15;;;;;;;0.72;100.00;102425.94;7398407;19;20023;-66
2023/01/22 09:58:38;;;;;;;25.35;17.02;;;;;;;0.73;100.00;102426.00;7396873;19;20439;-68
2023/01/22 10:01:08;;;;;;;25.80;17.52;;;;;;;0.71;100.00;102424.16;7397036;19;20015;-68
2023/01/22 10:03:39;;;;;;;23.10;16.23;;;;;;;0.75;100.00;102426.97;7397881;19;20509;-67
2023/01/22 10:06:14;;;;;;;21.35;15.40;;;;;;;0.75;100.00;102424.38;7397541;19;20035;-67
2023/01/22 10:08:58;;;;;;;23.85;16.13;;;;;;;0.77;100.00;102425.34;7396856;19;20018;-67
2023/01/22 10:11:29;;;;;;;23.90;15.32;;;;;;;0.78;100.00;102427.13;7397791;19;20010;-66
2023/01/22 10:14:01;;;;;;;24.58;15.15;;;;;;;0.79;100.00;102433.16;7397779;19;20032;-67
2023/01/22 10:16:36;;;;;;;20.15;14.88;;;;;;;0.79;100.00;102430.59;7394088;19;20023;-67
2023/01/22 10:19:12;;;;;;;22.92;16.05;;;;;;;0.81;100.00;102435.00;7398547;19;20534;-66
2023/01/22 10:21:45;;;;;;;27.73;16.15;;;;;;;0.81;100.00;102434.13;7396005;19;20510;-67
2023/01/22 10:24:14;;;;;;;26.00;16.25;;;;;;;0.82;100.00;102433.28;7396198;19;20059;-67
2023/01/22 10:26:49;;;;;;;22.58;15.85;;;;;;;0.80;100.00;102434.94;7396124;19;20019;-67
2023/01/22 10:29:23;;;;;;;;;;;;;;;0.84;100.00;102442.00;7396772;19;20022;-68
2023/01/22 10:31:54;;;;;;;22.90;15.23;;;;;;;0.88;100.00;102432.69;7395554;19;19915;-68
2023/01/22 10:34:29;;;;;;;23.58;15.45;;;;;;;0.91;100.00;102438.91;7396197;19;20018;-68
2023/01/22 10:37:02;;;;;;;20.92;14.57;;;;;;;0.88;100.00;102428.41;7395666;19;20025;-68
2023/01/22 10:39:42;;;;;;;23.73;16.50;;;;;;;0.92;100.00;102435.50;7395242;19;20027;-68
2023/01/22 10:42:18;;;;;;;19.13;14.77;;;;;;;0.92;100.00;102435.50;7396827;19;20054;-69
2023/01/22 10:44:48;;;;;;;20.00;13.77;;;;;;;0.91;100.00;102433.72;7394736;19;20085;-68
2023/01/22 10:47:20;;;;;;;26.85;17.58;;;;;;;0.95;100.00;102437.34;7396411;19;20074;-68
2023/01/22 10:49:49;;;;;;;28.08;17.42;;;;;;;0.95;100.00;102429.59;7397138;19;20031;-68
2023/01/22 10:52:24;;;;;;;26.15;15.82;;;;;;;0.94;100.00;102438.16;7397047;19;20023;-68
2023/01/22 10:54:57;;;;;;;21.70;15.20;;;;;;;0.94;100.00;102435.56;7395148;19;20018;-69
2023/01/22 10:57:33;;;;;;;22.05;15.40;;;;;;;0.93;100.00;102434.66;7396688;19;20022;-70
2023/01/22 11:00:08;;;;;;;22.83;14.52;;;;;;;0.96;100.00;102436.50;7399601;19;20025;-69
2023/01/22 11:02:37;;;;;;;25.83;15.07;;;;;;;0.96;100.00;102437.41;7410230;19;20078;-69
2023/01/22 11:05:15;;;;;;;25.75;16.33;;;;;;;0.97;100.00;102435.69;7394601;19;20086;-69
2023/01/22 11:07:45;;;;;;;22.55;15.65;;;;;;;0.97;100.00;102434.00;7394264;19;20428;-68
2023/01/22 11:10:20;;;;;;;24.77;16.02;;;;;;;0.98;100.00;102440.91;7394992;19;20023;-69
2023/01/22 11:12:54;;;;;;;24.95;15.93;;;;;;;1.01;100.00;102439.31;7398298;19;20454;-68
2023/01/22 11:15:27;;;;;;;24.83;15.70;;;;;;;1.02;100.00;102435.91;7395359;19;20010;-67
2023/01/22 11:17:59;;;;;;;24.08;15.25;;;;;;;0.99;100.00;102428.91;7395991;19;20010;-69
2023/01/22 11:20:31;;;;;;;23.38;15.70;;;;;;;0.99;100.00;102428.91;7396090;19;20518;-68
2023/01/22 11:23:07;;;;;;;23.13;14.32;;;;;;;1.04;100.00;102429.13;7396001;19;20032;-68
2023/01/22 11:25:42;;;;;;;23.00;15.05;;;;;;;1.03;100.00;102435.97;7395156;19;20027;-68
2023/01/22 11:28:26;;;;;;;24.80;16.52;;;;;;;1.03;100.00;102430.78;7400719;19;20015;-69
2023/01/22 11:31:15;;;;;;;23.73;15.93;;;;;;;1.04;100.00;102431.69;7400280;19;20018;-68
2023/01/22 11:34:03;;;;;;;21.52;14.70;;;;;;;1.05;100.00;102430.84;7399779;19;20474;-68